Time;durP1;ratioP1;P1;durP2;ratioP2;P2;SDS_P1;SDS_P2;PMS_P1;PMS_P2;Temp;Humidity;BMP_temperature;BMP_pressure;BME280_temperature;BME280_humidity;BME280_pressure;Samples;Min_cycle;Max_cycle;Signal;HPM_P1;HPM_P2
2022/08/17 00:01:26;;;;;;;10.05;7.57;;;;;21.00;100420.00;;;;12672169;23;20175;-77
2022/08/17 00:06:30;;;;;;;12.48;7.60;;;;;21.00;100406.00;;;;12672036;23;20192;-77
2022/08/17 00:11:38;;;;;;;9.90;7.53;;;;;21.10;100413.00;;;;12741144;23;20487;-76
2022/08/17 00:16:47;;;;;;;12.15;7.90;;;;;21.10;100391.00;;;;12743141;23;20634;-77
2022/08/17 00:22:01;;;;;;;10.50;7.18;;;;;21.10;100402.00;;;;12696979;23;20172;-77
2022/08/17 00:27:23;;;;;;;8.20;7.18;;;;;21.10;100402.00;;;;12741069;23;20183;-77
2022/08/17 00:32:25;;;;;;;10.02;7.35;;;;;21.00;100404.00;;;;12716867;23;20250;-77
2022/08/17 00:37:48;;;;;;;8.77;7.07;;;;;20.90;100400.00;;;;12698028;23;20166;-77
2022/08/17 00:42:52;;;;;;;8.02;7.00;;;;;20.90;100401.00;;;;12742461;23;20194;-77
2022/08/17 00:47:54;;;;;;;9.88;7.43;;;;;20.90;100396.00;;;;12696505;23;20198;-77
2022/08/17 00:52:56;;;;;;;9.30;6.68;;;;;20.90;100396.00;;;;12696028;23;20168;-77
2022/08/17 00:58:02;;;;;;;9.48;7.25;;;;;21.00;100384.00;;;;12697024;23;20821;-77
2022/08/17 01:03:10;;;;;;;9.73;8.13;;;;;20.90;100385.00;;;;12671673;23;20163;-77
2022/08/17 01:08:15;;;;;;;7.78;6.93;;;;;20.80;100376.00;;;;12694333;23;20258;-77
2022/08/17 01:13:17;;;;;;;9.20;7.25;;;;;20.70;100367.00;;;;12697726;23;20606;-77
2022/08/17 01:18:19;;;;;;;9.95;7.75;;;;;20.70;100363.00;;;;12722282;23;20198;-77
2022/08/17 01:23:24;;;;;;;11.23;7.20;;;;;20.60;100366.00;;;;12699057;23;20172;-77
2022/08/17 01:28:30;;;;;;;8.65;7.93;;;;;20.60;100364.00;;;;12722926;23;20183;-77
2022/08/17 01:33:52;;;;;;;10.27;8.23;;;;;20.60;100361.00;;;;12678306;23;20180;-77
2022/08/17 01:38:54;;;;;;;9.02;8.23;;;;;20.60;100364.00;;;;12699680;23;20243;-77
2022/08/17 01:44:02;;;;;;;10.10;8.60;;;;;20.50;100355.00;;;;12719965;23;20209;-77
2022/08/17 01:49:07;;;;;;;11.13;9.05;;;;;20.50;100358.00;;;;12697645;23;20245;-77
2022/08/17 01:54:13;;;;;;;10.02;8.98;;;;;20.50;100359.00;;;;12698443;23;20175;-76
2022/08/17 01:59:17;;;;;;;9.65;8.48;;;;;20.40;100364.00;;;;12674026;23;20168;-77
2022/08/17 02:04:20;;;;;;;9.32;8.45;;;;;20.40;100378.00;;;;12698012;23;20175;-77
2022/08/17 02:09:24;;;;;;;11.40;8.43;;;;;20.40;100369.00;;;;12742945;23;20168;-77
2022/08/17 02:14:30;;;;;;;9.90;8.90;;;;;20.40;100366.00;;;;12720750;23;20164;-77
2022/08/17 02:19:33;;;;;;;9.75;8.40;;;;;20.30;100376.00;;;;12695258;23;20231;-77
2022/08/17 02:24:37;;;;;;;11.10;8.85;;;;;20.30;100380.00;;;;12674143;23;20753;-77
2022/08/17 02:29:59;;;;;;;18.77;9.60;;;;;20.40;100384.00;;;;12698242;23;20179;-77
2022/08/17 02:35:02;;;;;;;12.52;9.55;;;;;20.50;100368.00;;;;12697919;23;20160;-77
2022/08/17 02:40:05;;;;;;;12.57;8.98;;;;;20.50;100357.00;;;;12698000;23;20172;-77
2022/08/17 02:45:12;;;;;;;10.43;9.15;;;;;20.50;100362.00;;;;12696967;23;20172;-77
2022/08/17 02:50:17;;;;;;;12.45;9.40;;;;;20.50;100386.00;;;;12698766;23;20188;-77
2022/08/17 02:55:26;;;;;;;12.65;9.32;;;;;20.50;100384.00;;;;12699593;23;20265;-77
2022/08/17 03:00:47;;;;;;;10.50;9.50;;;;;20.50;100391.00;;;;12694674;23;20156;-77
2022/08/17 03:05:50;;;;;;;13.63;8.95;;;;;20.50;100386.00;;;;12718312;23;20183;-77
2022/08/17 03:10:52;;;;;;;11.07;9.93;;;;;20.50;100383.00;;;;12697698;23;20211;-77
2022/08/17 03:15:54;;;;;;;10.18;8.90;;;;;20.60;100374.00;;;;12649340;23;20263;-76
2022/08/17 03:20:59;;;;;;;11.27;8.82;;;;;20.60;100372.00;;;;12718750;23;20171;-77
2022/08/17 03:26:01;;;;;;;13.98;8.88;;;;;20.60;100373.00;;;;12742464;23;20172;-77
2022/08/17 03:31:05;;;;;;;9.85;8.95;;;;;20.70;100377.00;;;;12742246;23;20164;-77
2022/08/17 03:36:07;;;;;;;11.32;9.43;;;;;20.60;100381.00;;;;12697479;23;20528;-77
2022/08/17 03:41:09;;;;;;;11.48;9.85;;;;;20.50;100391.00;;;;12741902;23;20160;-77
2022/08/17 03:57:05;;;;;;;11.82;10.82;;;;;20.10;100407.00;;;;12743169;23;20155;-77
2022/08/17 04:02:17;;;;;;;13.65;10.70;;;;;20.00;100409.00;;;;12673246;23;20170;-77
2022/08/17 04:07:22;;;;;;;12.48;11.25;;;;;20.00;100417.00;;;;12741705;23;20190;-77
2022/08/17 04:12:29;;;;;;;12.52;11.02;;;;;20.00;100431.00;;;;12697261;23;20176;-77
2022/08/17 04:17:31;;;;;;;13.75;12.23;;;;;20.00;100457.00;;;;12649783;23;20202;-77
2022/08/17 04:22:33;;;;;;;12.35;11.05;;;;;20.10;100468.00;;;;12746028;23;20171;-77
2022/08/17 04:27:35;;;;;;;15.20;13.75;;;;;20.00;100475.00;;;;12677509;23;20172;-78
2022/08/17 04:32:52;;;;;;;14.45;10.25;;;;;19.90;100484.00;;;;12719561;23;20171;-79
2022/08/17 04:38:11;;;;;;;14.75;10.85;;;;;19.70;100482.00;;;;12720800;23;20184;-80
2022/08/17 04:43:17;;;;;;;15.73;13.15;;;;;19.60;100476.00;;;;12674632;23;20176;-80
2022/08/17 04:48:20;;;;;;;13.90;12.50;;;;;19.60;100472.00;;;;12700136;23;20219;-80
2022/08/17 04:53:22;;;;;;;16.40;13.35;;;;;19.50;100465.00;;;;12678559;23;20178;-80
2022/08/17 04:58:24;;;;;;;15.05;13.02;;;;;19.40;100466.00;;;;12700377;23;20184;-80
2022/08/17 05:03:26;;;;;;;15.52;13.93;;;;;19.30;100456.00;;;;12725543;23;20179;-80
2022/08/17 05:08:28;;;;;;;18.40;14.68;;;;;19.30;100467.00;;;;12677320;23;20163;-81
2022/08/17 05:13:30;;;;;;;17.23;15.43;;;;;19.40;100478.00;;;;12698101;23;20201;-80
2022/08/17 05:18:32;;;;;;;17.23;15.52;;;;;19.40;100482.00;;;;12700008;23;20202;-80
2022/08/17 05:23:35;;;;;;;17.65;15.88;;;;;19.50;100491.00;;;;12726515;23;20172;-80
2022/08/17 05:28:44;;;;;;;15.57;13.95;;;;;19.60;100483.00;;;;12732776;23;20156;-79
2022/08/17 05:33:48;;;;;;;14.02;12.60;;;;;19.60;100480.00;;;;12732423;23;20168;-80
2022/08/17 05:38:50;;;;;;;16.13;14.07;;;;;19.60;100476.00;;;;12733840;23;20207;-80
2022/08/17 05:43:52;;;;;;;15.02;13.50;;;;;19.70;100483.00;;;;12706885;23;20178;-79
2022/08/17 05:49:07;;;;;;;15.40;13.90;;;;;19.90;100480.00;;;;12704176;23;20188;-80
2022/08/17 05:54:24;;;;;;;19.42;16.23;;;;;20.00;100484.00;;;;12714288;22;20673;-79
2022/08/17 05:59:57;;;;;;;19.58;17.48;;;;;20.00;100491.00;;;;12707013;23;20205;-79
2022/08/17 06:05:13;;;;;;;20.65;18.58;;;;;20.00;100497.00;;;;12680644;23;20197;-80
2022/08/17 06:10:34;;;;;;;20.50;18.45;;;;;19.90;100508.00;;;;12729759;23;20651;-79
2022/08/17 06:16:23;;;;;;;21.45;19.42;;;;;19.90;100516.00;;;;12701949;23;20168;-79
2022/08/17 06:21:40;;;;;;;21.98;19.52;;;;;19.90;100512.00;;;;12749884;23;20168;-80
2022/08/17 06:26:44;;;;;;;21.20;18.08;;;;;20.00;100510.00;;;;12746095;23;20152;-81
2022/08/17 06:31:46;;;;;;;22.38;18.80;;;;;19.90;100507.00;;;;12701595;23;20199;-81
2022/08/17 06:36:55;;;;;;;22.08;19.40;;;;;19.90;100532.00;;;;12701950;23;20209;-80
2022/08/17 06:42:09;;;;;;;24.63;22.10;;;;;20.00;100541.00;;;;12700095;23;20156;-80
2022/08/17 06:47:41;;;;;;;23.98;21.17;;;;;20.00;100554.00;;;;12697382;23;20194;-79
2022/08/17 06:53:18;;;;;;;25.85;22.48;;;;;20.00;100558.00;;;;12721885;23;20207;-79
2022/08/17 06:58:23;;;;;;;24.58;22.00;;;;;20.00;100566.00;;;;12725691;23;20187;-80
2022/08/17 07:03:40;;;;;;;32.65;26.20;;;;;20.00;100576.00;;;;12700459;23;20243;-78
2022/08/17 07:08:57;;;;;;;30.23;26.90;;;;;20.00;100582.00;;;;12723760;23;20160;-77
2022/08/17 07:14:10;;;;;;;40.97;29.50;;;;;20.00;100581.00;;;;12696836;23;20207;-78
2022/08/17 07:19:25;;;;;;;35.80;30.73;;;;;20.00;100574.00;;;;12696090;23;20206;-77
2022/08/17 07:24:38;;;;;;;38.30;30.98;;;;;20.00;100564.00;;;;12699428;23;20229;-79
2022/08/17 07:29:45;;;;;;;36.40;32.47;;;;;20.00;100552.00;;;;12708497;23;20172;-79
2022/08/17 07:35:09;;;;;;;38.20;34.13;;;;;20.00;100554.00;;;;12686518;23;20219;-80
2022/08/17 07:40:20;;;;;;;40.55;36.38;;;;;20.10;100550.00;;;;12709426;23;20260;-80
2022/08/17 07:50:43;;;;;;;44.38;38.40;;;;;20.20;100560.00;;;;12733510;23;20172;-79
2022/08/17 07:55:52;;;;;;;46.65;39.35;;;;;20.20;100566.00;;;;12707959;23;20577;-79
2022/08/17 08:01:06;;;;;;;44.78;40.17;;;;;20.20;100572.00;;;;12682489;23;20199;-79
2022/08/17 08:06:22;;;;;;;43.58;38.88;;;;;20.10;100579.00;;;;12677901;23;20239;-79
2022/08/17 08:11:31;;;;;;;44.63;37.25;;;;;20.00;100592.00;;;;12773533;23;20163;-78
2022/08/17 08:16:34;;;;;;;45.42;38.10;;;;;20.00;100590.00;;;;12702997;23;20191;-79
2022/08/17 08:21:54;;;;;;;42.50;38.08;;;;;20.00;100597.00;;;;12702582;23;20180;-78
2022/08/17 08:27:07;;;;;;;43.75;39.05;;;;;20.10;100586.00;;;;12699992;23;20160;-79
2022/08/17 08:32:24;;;;;;;45.75;40.70;;;;;20.20;100593.00;;;;12701409;23;20158;-79
2022/08/17 08:37:45;;;;;;;44.38;39.55;;;;;20.30;100587.00;;;;12723953;23;20216;-79
2022/08/17 08:42:57;;;;;;;46.75;41.67;;;;;20.60;100595.00;;;;12676731;23;20167;-79
2022/08/17 08:48:04;;;;;;;51.47;41.53;;;;;20.80;100592.00;;;;12693740;23;20567;-79
2022/08/17 08:53:31;;;;;;;46.63;41.55;;;;;21.20;100580.00;;;;12695526;23;20164;-80
2022/08/17 08:59:10;;;;;;;43.40;38.70;;;;;21.50;100582.00;;;;12692957;23;20203;-79
2022/08/17 09:04:39;;;;;;;40.80;36.63;;;;;21.50;100576.00;;;;12732049;23;20183;-80
2022/08/17 09:10:24;;;;;;;41.33;36.88;;;;;21.40;100578.00;;;;12695636;23;20183;-79
2022/08/17 09:15:33;;;;;;;42.13;37.70;;;;;21.10;100580.00;;;;12682687;23;20309;-80
2022/08/17 09:21:09;;;;;;;44.08;38.45;;;;;21.20;100570.00;;;;12679176;23;20192;-79
2022/08/17 09:26:21;;;;;;;42.80;38.00;;;;;21.60;100575.00;;;;12717107;23;20171;-80
2022/08/17 09:31:37;;;;;;;42.42;38.05;;;;;22.10;100580.00;;;;12701406;23;20167;-80
2022/08/17 09:37:15;;;;;;;43.58;38.60;;;;;22.60;100589.00;;;;12723327;23;20190;-80
2022/08/17 09:42:25;;;;;;;40.55;36.45;;;;;22.50;100606.00;;;;12723662;23;20156;-80
2022/08/17 09:47:42;;;;;;;43.20;38.53;;;;;22.10;100605.00;;;;12765615;23;20810;-80
2022/08/17 09:52:44;;;;;;;47.13;42.17;;;;;22.40;100609.00;;;;12723276;23;20607;-80
2022/08/17 09:57:57;;;;;;;45.28;40.50;;;;;22.20;100608.00;;;;12764988;23;20188;-81
2022/08/17 10:03:19;;;;;;;45.03;40.45;;;;;22.00;100615.00;;;;12690878;23;20175;-80
2022/08/17 10:08:31;;;;;;;47.85;42.58;;;;;22.20;100609.00;;;;12707789;23;20202;-79
2022/08/17 10:13:33;;;;;;;46.55;41.47;;;;;22.60;100599.00;;;;12708556;23;20212;-80
2022/08/17 10:18:51;;;;;;;45.90;40.90;;;;;22.70;100608.00;;;;12682410;23;20187;-80
2022/08/17 10:29:50;;;;;;;45.92;40.45;;;;;22.40;100621.00;;;;12704702;23;20226;-79
2022/08/17 10:35:09;;;;;;;48.15;42.95;;;;;22.60;100626.00;;;;12687337;23;20171;-81
2022/08/17 10:40:42;;;;;;;50.25;44.85;;;;;23.10;100622.00;;;;12723289;23;20258;-81
2022/08/17 10:46:12;;;;;;;46.72;41.75;;;;;23.60;100628.00;;;;12700531;23;20175;-81
2022/08/17 10:51:36;;;;;;;41.60;37.30;;;;;23.80;100637.00;;;;12698845;23;20171;-82
2022/08/17 10:56:45;;;;;;;39.33;34.92;;;;;23.80;100631.00;;;;12697882;23;20225;-83
2022/08/17 11:02:03;;;;;;;39.53;34.58;;;;;23.90;100618.00;;;;12698475;23;20172;-82
2022/08/17 11:07:11;;;;;;;34.05;30.52;;;;;23.90;100625.00;;;;12694602;23;20202;-82
2022/08/17 11:12:44;;;;;;;36.97;33.15;;;;;23.40;100632.00;;;;12720258;23;20195;-82
2022/08/17 11:18:03;;;;;;;33.38;30.08;;;;;23.10;100637.00;;;;12709246;23;20245;-82
2022/08/17 11:23:19;;;;;;;31.95;28.77;;;;;22.60;100635.00;;;;12688660;23;20168;-81
2022/08/17 11:28:33;;;;;;;30.38;27.17;;;;;22.30;100644.00;;;;12690957;23;20170;-82
2022/08/17 11:33:35;;;;;;;24.20;21.77;;;;;22.20;100645.00;;;;12691445;23;20163;-82
2022/08/17 11:39:03;;;;;;;23.17;20.40;;;;;22.20;100658.00;;;;12713455;23;20843;-81
2022/08/17 11:44:19;;;;;;;20.65;18.60;;;;;22.30;100657.00;;;;12694504;23;20187;-81
2022/08/17 11:55:34;;;;;;;22.23;20.13;;;;;24.00;100638.00;;;;12792730;23;20179;-82
2022/08/17 12:00:43;;;;;;;23.63;20.38;;;;;25.80;100640.00;;;;12729228;23;20184;-82
2022/08/17 12:05:46;;;;;;;22.38;20.20;;;;;27.00;100621.00;;;;12698007;23;20184;-81
2022/08/17 12:10:58;;;;;;;22.90;20.63;;;;;27.30;100622.00;;;;12743343;23;20163;-81
2022/08/17 12:16:01;;;;;;;19.15;17.30;;;;;27.40;100620.00;;;;12695760;23;20603;-81
2022/08/17 12:21:19;;;;;;;19.08;17.10;;;;;27.70;100630.00;;;;12720546;23;20207;-80
2022/08/17 12:26:25;;;;;;;20.98;15.05;;;;;27.80;100629.00;;;;12741348;23;20163;-79
2022/08/17 12:31:33;;;;;;;13.15;11.90;;;;;29.10;100626.00;;;;12714045;23;20480;-80
2022/08/17 12:36:38;;;;;;;12.00;10.80;;;;;30.10;100611.00;;;;12711384;23;20175;-80
2022/08/17 12:41:43;;;;;;;10.85;9.85;;;;;29.40;100626.00;;;;12754262;23;20179;-79
2022/08/17 12:46:59;;;;;;;10.80;9.70;;;;;27.70;100617.00;;;;12701855;23;20274;-77
2022/08/17 12:52:11;;;;;;;7.75;7.15;;;;;26.70;100617.00;;;;12704658;23;20144;-79
2022/08/17 12:57:20;;;;;;;10.38;9.27;;;;;26.10;100620.00;;;;12676104;23;20215;-79
2022/08/17 13:02:38;;;;;;;10.13;9.13;;;;;25.70;100620.00;;;;12677637;23;20164;-79
2022/08/17 13:07:41;;;;;;;8.80;7.97;;;;;25.10;100632.00;;;;12702351;23;20193;-79
2022/08/17 13:12:43;;;;;;;9.80;8.90;;;;;24.80;100627.00;;;;12704557;23;20164;-79
2022/08/17 13:17:56;;;;;;;8.77;7.93;;;;;25.10;100615.00;;;;12706715;23;20906;-78
2022/08/17 13:23:00;;;;;;;8.18;7.38;;;;;25.70;100619.00;;;;12684794;23;20218;-79
2022/08/17 13:28:02;;;;;;;7.80;7.10;;;;;26.30;100618.00;;;;12733377;23;20160;-79
2022/08/17 13:33:23;;;;;;;7.97;7.28;;;;;26.50;100605.00;;;;12733378;23;20206;-80
2022/08/17 13:38:46;;;;;;;8.15;7.35;;;;;26.30;100613.00;;;;12708304;23;20184;-79
2022/08/17 13:43:49;;;;;;;7.97;6.78;;;;;26.20;100616.00;;;;12684147;23;20194;-79
2022/08/17 13:49:08;;;;;;;7.90;7.10;;;;;25.70;100607.00;;;;12707694;23;20759;-78
2022/08/17 13:54:25;;;;;;;6.63;6.10;;;;;25.10;100606.00;;;;12737344;23;20168;-79
2022/08/17 13:59:56;;;;;;;7.13;6.53;;;;;24.70;100615.00;;;;12680208;23;20222;-79
2022/08/17 14:05:00;;;;;;;7.32;6.60;;;;;24.70;100617.00;;;;12724052;23;20168;-79
2022/08/17 14:10:16;;;;;;;16.67;14.73;;;;;25.00;100615.00;;;;12680441;23;20475;-79
2022/08/17 14:15:21;;;;;;;17.88;16.27;;;;;25.40;100610.00;;;;12685652;23;20168;-79
2022/08/17 14:20:24;;;;;;;19.88;18.02;;;;;26.30;100613.00;;;;12678779;23;20222;-79
2022/08/17 14:25:28;;;;;;;21.77;19.70;;;;;27.10;100606.00;;;;12723808;23;20164;-79
2022/08/17 14:30:30;;;;;;;18.10;16.55;;;;;27.00;100602.00;;;;12703950;23;20160;-79
2022/08/17 14:35:33;;;;;;;19.35;17.55;;;;;26.50;100607.00;;;;12684514;23;20178;-79
2022/08/17 14:40:36;;;;;;;16.45;15.05;;;;;26.20;100609.00;;;;12701463;23;20195;-78
2022/08/17 14:45:40;;;;;;;20.20;18.42;;;;;26.10;100609.00;;;;12687311;23;20178;-78
2022/08/17 14:50:43;;;;;;;30.15;27.48;;;;;25.90;100604.00;;;;12711247;23;20642;-78
2022/08/17 14:55:45;;;;;;;26.77;24.30;;;;;25.80;100605.00;;;;12687457;23;20175;-79
2022/08/17 15:00:49;;;;;;;25.27;22.98;;;;;26.80;100602.00;;;;12691392;23;20192;-78
2022/08/17 15:05:52;;;;;;;25.45;23.05;;;;;28.20;100590.00;;;;12686762;23;20179;-78
2022/08/17 15:10:55;;;;;;;24.42;22.13;;;;;29.00;100591.00;;;;12737692;23;20271;-79
2022/08/17 15:16:01;;;;;;;27.33;24.77;;;;;30.00;100580.00;;;;12712070;23;20214;-78
2022/08/17 15:21:05;;;;;;;28.23;25.70;;;;;29.00;100578.00;;;;12671734;23;20184;-78
2022/08/17 15:26:07;;;;;;;27.25;24.63;;;;;27.90;100573.00;;;;12728220;23;20168;-79
2022/08/17 15:31:10;;;;;;;24.60;22.30;;;;;27.60;100572.00;;;;12688950;23;20172;-79
2022/08/17 15:36:13;;;;;;;24.65;22.05;;;;;27.00;100568.00;;;;12716073;23;20240;-79
2022/08/17 15:41:17;;;;;;;24.27;21.90;;;;;27.10;100570.00;;;;12665391;23;20230;-78
2022/08/17 15:46:22;;;;;;;22.33;20.10;;;;;26.70;100562.00;;;;12710575;23;20207;-78
2022/08/17 15:51:30;;;;;;;19.40;17.38;;;;;26.40;100563.00;;;;12691667;23;20195;-78
2022/08/17 15:56:33;;;;;;;23.48;21.23;;;;;25.80;100560.00;;;;12705849;23;20194;-78
2022/08/17 16:01:35;;;;;;;22.95;20.73;;;;;25.30;100562.00;;;;12731354;23;20187;-77
2022/08/17 16:06:58;;;;;;;23.05;21.00;;;;;25.20;100577.00;;;;12681236;23;20187;-77
2022/08/17 16:12:17;;;;;;;23.02;20.92;;;;;25.20;100583.00;;;;12684975;23;20219;-77
2022/08/17 16:17:20;;;;;;;24.50;22.20;;;;;24.80;100595.00;;;;12810873;23;20250;-77
2022/08/17 16:22:44;;;;;;;23.42;21.23;;;;;24.90;100607.00;;;;12683108;23;20168;-78
2022/08/17 16:27:48;;;;;;;22.60;20.58;;;;;25.30;100620.00;;;;12680702;23;20170;-77
2022/08/17 16:32:52;;;;;;;20.48;18.67;;;;;25.60;100625.00;;;;12751791;23;20618;-77
2022/08/17 16:37:55;;;;;;;20.48;18.58;;;;;26.00;100637.00;;;;12685372;23;20232;-77
2022/08/17 16:42:59;;;;;;;20.55;18.67;;;;;26.10;100636.00;;;;12809834;23;20199;-78
2022/08/17 16:48:01;;;;;;;19.85;17.80;;;;;26.10;100637.00;;;;12682488;23;20210;-77
2022/08/17 16:53:15;;;;;;;17.95;16.08;;;;;26.10;100640.00;;;;12678590;23;20176;-78
2022/08/17 16:58:18;;;;;;;16.85;15.40;;;;;25.80;100644.00;;;;12703997;23;20190;-77
2022/08/17 17:03:23;;;;;;;18.42;16.77;;;;;25.90;100643.00;;;;12675693;23;20237;-77
2022/08/17 17:09:09;;;;;;;20.38;18.42;;;;;25.60;100653.00;;;;12656297;23;20619;-77
2022/08/17 17:14:19;;;;;;;19.33;17.45;;;;;25.10;100652.00;;;;12822817;23;20245;-78
2022/08/17 17:19:31;;;;;;;20.73;18.80;;;;;24.70;100657.00;;;;12679219;23;20562;-78
2022/08/17 17:24:49;;;;;;;23.23;20.92;;;;;24.50;100655.00;;;;12705388;23;20245;-78
2022/08/17 17:29:57;;;;;;;19.15;17.38;;;;;24.00;100646.00;;;;12682548;23;20167;-78
2022/08/17 17:35:05;;;;;;;20.58;18.67;;;;;23.50;100651.00;;;;12706112;23;20174;-78
2022/08/17 17:40:30;;;;;;;19.90;18.00;;;;;23.30;100652.00;;;;12656630;23;20302;-77
2022/08/17 17:45:39;;;;;;;19.67;17.73;;;;;23.40;100652.00;;;;12677952;23;20595;-77
2022/08/17 17:50:50;;;;;;;19.58;17.50;;;;;23.30;100644.00;;;;12658025;23;20241;-80
2022/08/17 17:56:01;;;;;;;18.80;17.00;;;;;23.20;100641.00;;;;12708968;23;20167;-78
2022/08/17 18:01:41;;;;;;;22.85;20.95;;;;;23.00;100642.00;;;;12706017;23;20211;-78
2022/08/17 18:07:06;;;;;;;28.58;25.98;;;;;22.80;100648.00;;;;12654632;23;20175;-77
2022/08/17 18:12:44;;;;;;;30.58;27.58;;;;;22.50;100655.00;;;;12651446;23;20167;-78
2022/08/17 18:18:01;;;;;;;33.05;29.80;;;;;22.20;100657.00;;;;12738055;23;20251;-78
2022/08/17 18:23:03;;;;;;;31.58;28.42;;;;;21.90;100666.00;;;;12676879;23;20175;-78
2022/08/17 18:28:07;;;;;;;28.33;25.48;;;;;21.70;100675.00;;;;12684596;23;20259;-79
2022/08/17 18:33:25;;;;;;;27.92;25.38;;;;;21.40;100681.00;;;;12680585;23;20175;-79
2022/08/17 18:38:34;;;;;;;27.88;25.23;;;;;21.20;100677.00;;;;12725233;23;20190;-79
2022/08/17 18:43:36;;;;;;;28.48;25.67;;;;;21.00;100678.00;;;;12697648;23;20208;-79
2022/08/17 18:48:58;;;;;;;29.02;25.67;;;;;20.80;100674.00;;;;12703443;23;20191;-78
2022/08/17 18:54:22;;;;;;;26.70;24.23;;;;;20.60;100675.00;;;;12674730;23;20263;-78
2022/08/17 18:59:25;;;;;;;28.23;25.35;;;;;20.50;100681.00;;;;12676010;23;20187;-78
2022/08/17 19:04:38;;;;;;;31.00;27.77;;;;;20.30;100695.00;;;;12676279;23;20211;-79
2022/08/17 19:09:45;;;;;;;31.80;28.63;;;;;20.20;100704.00;;;;12676561;23;20156;-78
2022/08/17 19:14:50;;;;;;;34.38;30.80;;;;;20.00;100708.00;;;;12677093;23;20602;-79
2022/08/17 19:20:01;;;;;;;34.67;31.13;;;;;19.90;100724.00;;;;12677493;23;20253;-78
2022/08/17 19:25:11;;;;;;;34.03;30.55;;;;;19.70;100740.00;;;;12701235;23;20171;-79
2022/08/17 19:30:19;;;;;;;37.75;33.85;;;;;19.60;100741.00;;;;12676912;23;20160;-79
2022/08/17 19:35:29;;;;;;;38.28;34.03;;;;;19.50;100753.00;;;;12701323;23;20176;-79
2022/08/17 19:40:37;;;;;;;37.65;33.65;;;;;19.40;100764.00;;;;12676257;23;20176;-78
2022/08/17 19:46:17;;;;;;;38.00;34.03;;;;;19.30;100775.00;;;;12700587;23;20246;-79
2022/08/17 19:51:40;;;;;;;36.03;32.40;;;;;19.20;100767.00;;;;12721710;23;20159;-78
2022/08/17 19:57:06;;;;;;;34.75;31.15;;;;;19.00;100771.00;;;;12676205;23;20627;-79
2022/08/17 20:02:35;;;;;;;33.70;30.15;;;;;18.90;100781.00;;;;12676009;23;20187;-78
2022/08/17 20:08:04;;;;;;;31.02;27.77;;;;;18.80;100791.00;;;;12720634;23;20168;-78
2022/08/17 20:13:12;;;;;;;34.05;29.88;;;;;18.70;100797.00;;;;12752821;22;20203;-79
2022/08/17 20:18:27;;;;;;;32.15;29.05;;;;;18.60;100797.00;;;;12745314;23;20265;-78
2022/08/17 20:23:51;;;;;;;34.15;30.63;;;;;18.50;100789.00;;;;12721468;23;20165;-80
2022/08/17 20:29:21;;;;;;;36.83;31.08;;;;;18.40;100797.00;;;;12699847;23;20163;-78
2022/08/17 20:34:45;;;;;;;33.58;29.98;;;;;18.30;100790.00;;;;12721049;23;20559;-78
2022/08/17 20:39:51;;;;;;;37.08;33.03;;;;;18.20;100797.00;;;;12699920;23;20218;-80
2022/08/17 20:45:01;;;;;;;41.05;34.00;;;;;18.10;100798.00;;;;12698973;23;20192;-79
2022/08/17 20:50:32;;;;;;;39.22;33.67;;;;;18.10;100797.00;;;;12675040;23;20180;-79
2022/08/17 20:55:34;;;;;;;42.95;37.60;;;;;18.10;100803.00;;;;12651341;23;20263;-80
2022/08/17 21:00:55;;;;;;;42.85;38.17;;;;;18.10;100809.00;;;;12674324;23;20188;-79
2022/08/17 21:06:05;;;;;;;47.75;38.28;;;;;18.00;100803.00;;;;12700244;23;20180;-79
2022/08/17 21:11:27;;;;;;;44.30;38.33;;;;;18.00;100800.00;;;;12676902;23;20599;-79
2022/08/17 21:17:28;;;;;;;44.63;38.92;;;;;17.90;100801.00;;;;12721543;23;20163;-78
2022/08/17 21:22:47;;;;;;;47.85;40.55;;;;;17.90;100807.00;;;;12675629;23;20180;-79
2022/08/17 21:28:09;;;;;;;49.88;38.75;;;;;17.80;100822.00;;;;12746556;23;20175;-80
2022/08/17 21:33:19;;;;;;;45.75;39.17;;;;;17.70;100820.00;;;;12677372;23;20262;-80
2022/08/17 21:38:33;;;;;;;49.47;39.28;;;;;17.70;100820.00;;;;12721655;23;20490;-80
2022/08/17 21:43:36;;;;;;;54.40;42.47;;;;;17.70;100811.00;;;;12672993;23;20172;-80
2022/08/17 21:48:43;;;;;;;47.95;39.78;;;;;17.60;100821.00;;;;12677294;23;20625;-80
2022/08/17 21:53:52;;;;;;;50.28;41.85;;;;;17.50;100812.00;;;;12722281;23;20528;-79
2022/08/17 21:59:01;;;;;;;51.33;40.63;;;;;17.50;100804.00;;;;12703165;23;20642;-80
2022/08/17 22:04:10;;;;;;;53.10;40.95;;;;;17.40;100796.00;;;;12705497;23;20176;-80
2022/08/17 22:09:14;;;;;;;55.75;42.47;;;;;17.30;100790.00;;;;12680704;23;20167;-80
2022/08/17 22:14:20;;;;;;;67.32;47.80;;;;;17.30;100784.00;;;;12680687;23;20559;-81
2022/08/17 22:19:27;;;;;;;56.72;43.78;;;;;17.30;100785.00;;;;12684342;23;20210;-80
2022/08/17 22:24:29;;;;;;;53.33;41.85;;;;;17.30;100796.00;;;;12680730;23;20526;-80
2022/08/17 22:29:55;;;;;;;54.83;41.85;;;;;17.10;100794.00;;;;12679780;23;20174;-80
2022/08/17 22:35:18;;;;;;;52.28;40.83;;;;;17.10;100789.00;;;;12709511;23;20168;-80
2022/08/17 22:40:29;;;;;;;54.25;42.33;;;;;17.10;100784.00;;;;12730037;23;20400;-81
2022/08/17 22:45:42;;;;;;;54.85;42.10;;;;;17.00;100784.00;;;;12685183;23;20706;-81
2022/08/17 22:50:44;;;;;;;54.28;42.17;;;;;17.00;100789.00;;;;12709620;23;20202;-81
2022/08/17 23:01:27;;;;;;;84.45;54.63;;;;;17.00;100790.00;;;;12689975;23;20203;-80
2022/08/17 23:06:32;;;;;;;87.47;53.80;;;;;17.00;100788.00;;;;12688300;23;20541;-80
2022/08/17 23:11:47;;;;;;;72.20;49.60;;;;;16.90;100774.00;;;;12689212;23;20637;-82
2022/08/17 23:16:51;;;;;;;93.05;56.90;;;;;16.90;100780.00;;;;12734301;23;20159;-80
2022/08/17 23:21:54;;;;;;;98.95;58.25;;;;;16.90;100787.00;;;;12692964;23;20207;-81
2022/08/17 23:26:57;;;;;;;112.53;64.17;;;;;17.00;100784.00;;;;12690337;23;20172;-80
2022/08/17 23:32:03;;;;;;;104.75;60.65;;;;;17.00;100778.00;;;;12719092;23;20164;-81
2022/08/17 23:37:06;;;;;;;105.97;60.80;;;;;17.00;100772.00;;;;12714065;23;20164;-81
2022/08/17 23:42:10;;;;;;;101.25;58.85;;;;;17.00;100770.00;;;;12692391;23;20180;-80
2022/08/17 23:47:12;;;;;;;89.85;56.28;;;;;16.90;100777.00;;;;12689989;23;20188;-80
2022/08/17 23:52:14;;;;;;;94.07;58.22;;;;;16.80;100782.00;;;;12692924;23;20214;-81
2022/08/17 23:57:19;;;;;;;107.57;62.37;;;;;16.80;100789.00;;;;12717096;23;20168;-81
